Terminal Aerodrome Forecast
Issued by NWS Sioux Falls, SD

Home | Current Version | Previous Version | Text Only | Print | Product List | Glossary Off
Versions: 1 2 3 4 5 6 7 8 9 10 11 12 13 14 15 16 17 18 19 20 21 22 23 24 25 26 27 28 29 30

501
FTUS43 KFSD 052324
TAFSUX
TAF
KSUX 052324Z 0600/0624 23005KT P6SM SCT015 BKN060
      TEMPO 0600/0604 BKN015
     FM060700 31006KT P6SM SCT015
     FM061000 27004KT P6SM SCT250
     FM061400 19004KT P6SM FEW250
     FM061800 19009KT P6SM FEW250=

USA.gov is the U.S. government's official web portal to all federal, state and local government web resources and services.